TimeCST,TemperatureF,Dew PointF,Humidity,Sea Level PressureIn,VisibilityMPH,Wind Direction,Wind SpeedMPH,Gust SpeedMPH,PrecipitationIn,Events,Conditions,WindDirDegrees,DateUTC
12:15 AM,15.8,12.2,86,30.42,8.0,ENE,3.5,-,N/A,,Clear,60,2013-03-08 06:15:00
12:35 AM,14.0,10.4,86,30.42,7.0,ENE,4.6,-,N/A,,Clear,70,2013-03-08 06:35:00
12:55 AM,15.8,12.2,86,30.41,7.0,East,6.9,-,N/A,,Clear,90,2013-03-08 06:55:00
1:15 AM,12.2,8.6,85,30.42,6.0,East,4.6,-,N/A,,Clear,90,2013-03-08 07:15:00
1:35 AM,12.2,8.6,85,30.42,7.0,East,4.6,-,N/A,,Clear,90,2013-03-08 07:35:00
1:55 AM,12.2,8.6,85,30.43,7.0,East,4.6,-,N/A,,Clear,90,2013-03-08 07:55:00
2:15 AM,10.4,6.8,85,30.43,6.0,East,3.5,-,N/A,,Clear,90,2013-03-08 08:15:00
2:35 AM,12.2,10.4,92,30.42,7.0,East,5.8,-,N/A,,Clear,80,2013-03-08 08:35:00
2:55 AM,14.0,10.4,86,30.42,7.0,East,4.6,-,N/A,,Clear,90,2013-03-08 08:55:00
3:15 AM,12.2,10.4,92,30.42,7.0,East,5.8,-,N/A,,Clear,90,2013-03-08 09:15:00
3:35 AM,12.2,10.4,92,30.42,7.0,East,5.8,-,N/A,,Clear,80,2013-03-08 09:35:00
3:55 AM,12.2,8.6,85,30.42,7.0,East,4.6,-,N/A,,Clear,80,2013-03-08 09:55:00
4:15 AM,12.2,6.8,79,30.42,7.0,East,5.8,-,N/A,,Clear,80,2013-03-08 10:15:00
4:35 AM,12.2,8.6,85,30.42,7.0,East,4.6,-,N/A,,Clear,80,2013-03-08 10:35:00
4:55 AM,12.2,10.4,92,30.42,7.0,East,5.8,-,N/A,,Clear,90,2013-03-08 10:55:00
5:15 AM,10.4,8.6,92,30.43,6.0,East,4.6,-,N/A,,Clear,90,2013-03-08 11:15:00
5:35 AM,12.2,8.6,85,30.43,5.0,East,4.6,-,N/A,,Clear,90,2013-03-08 11:35:00
5:55 AM,12.2,8.6,85,30.43,5.0,East,5.8,-,N/A,,Clear,80,2013-03-08 11:55:00
6:15 AM,10.4,6.8,85,30.44,3.0,East,5.8,-,N/A,,Clear,80,2013-03-08 12:15:00
6:35 AM,12.2,10.4,92,30.43,4.0,East,5.8,-,N/A,,Clear,90,2013-03-08 12:35:00
6:55 AM,12.2,8.6,85,30.43,4.0,East,5.8,-,N/A,,Clear,80,2013-03-08 12:55:00
7:15 AM,12.2,8.6,85,30.44,4.0,ESE,5.8,-,N/A,,Clear,110,2013-03-08 13:15:00
7:35 AM,10.4,6.8,85,30.44,5.0,ESE,6.9,-,N/A,,Clear,110,2013-03-08 13:35:00
7:55 AM,12.2,8.6,85,30.44,5.0,ESE,5.8,-,N/A,,Clear,110,2013-03-08 13:55:00
8:15 AM,15.8,8.6,73,30.44,5.0,ESE,5.8,-,N/A,,Clear,110,2013-03-08 14:15:00
8:35 AM,15.8,12.2,86,30.45,6.0,ESE,8.1,-,N/A,,Clear,110,2013-03-08 14:35:00
8:55 AM,19.4,15.8,86,30.45,6.0,East,5.8,-,N/A,,Clear,100,2013-03-08 14:55:00
9:15 AM,21.2,17.6,86,30.45,7.0,East,5.8,-,N/A,,Clear,100,2013-03-08 15:15:00
9:55 AM,28.4,21.2,74,30.44,10.0,ESE,6.9,-,N/A,,Clear,120,2013-03-08 15:55:00
10:35 AM,32.0,23.0,69,30.45,10.0,SE,8.1,-,N/A,,Clear,130,2013-03-08 16:35:00
10:55 AM,32.0,23.0,69,30.44,10.0,SE,10.4,-,N/A,,Clear,130,2013-03-08 16:55:00
11:15 AM,33.8,24.8,70,30.44,10.0,ESE,11.5,-,N/A,,Clear,120,2013-03-08 17:15:00
11:35 AM,33.8,24.8,70,30.44,10.0,ESE,10.4,-,N/A,,Clear,120,2013-03-08 17:35:00
11:55 AM,33.8,24.8,70,30.43,10.0,ESE,9.2,-,N/A,,Clear,120,2013-03-08 17:55:00
12:35 PM,35.6,26.6,70,30.42,10.0,ESE,8.1,-,N/A,,Clear,110,2013-03-08 18:35:00
12:55 PM,35.6,26.6,70,30.41,10.0,ESE,9.2,-,N/A,,Clear,120,2013-03-08 18:55:00
1:15 PM,35.6,26.6,70,30.39,10.0,ESE,10.4,-,N/A,,Clear,120,2013-03-08 19:15:00
1:35 PM,35.6,26.6,70,30.39,10.0,ESE,8.1,-,N/A,,Clear,120,2013-03-08 19:35:00
1:55 PM,35.6,26.6,70,30.39,10.0,ESE,6.9,-,N/A,,Clear,120,2013-03-08 19:55:00
2:15 PM,35.6,26.6,70,30.38,10.0,ESE,8.1,-,N/A,,Clear,110,2013-03-08 20:15:00
2:35 PM,35.6,26.6,70,30.37,10.0,ESE,9.2,-,N/A,,Clear,120,2013-03-08 20:35:00
2:55 PM,35.6,26.6,70,30.36,10.0,ESE,10.4,-,N/A,,Clear,110,2013-03-08 20:55:00
3:15 PM,35.6,28.4,75,30.36,10.0,ESE,9.2,-,N/A,,Clear,120,2013-03-08 21:15:00
3:35 PM,35.6,28.4,75,30.35,10.0,ESE,8.1,-,N/A,,Clear,110,2013-03-08 21:35:00
3:55 PM,35.6,28.4,75,30.36,10.0,ESE,8.1,-,N/A,,Clear,120,2013-03-08 21:55:00
4:15 PM,35.6,28.4,75,30.35,10.0,SE,10.4,-,N/A,,Clear,130,2013-03-08 22:15:00
4:35 PM,35.6,28.4,75,30.35,10.0,ESE,8.1,-,N/A,,Clear,120,2013-03-08 22:35:00
4:55 PM,33.8,28.4,81,30.35,10.0,ESE,9.2,-,N/A,,Clear,110,2013-03-08 22:55:00
5:15 PM,33.8,26.6,75,30.35,8.0,ESE,6.9,-,N/A,,Clear,110,2013-03-08 23:15:00
5:35 PM,33.8,26.6,75,30.36,9.0,ESE,8.1,-,N/A,,Clear,110,2013-03-08 23:35:00
5:55 PM,32.0,26.6,80,30.36,8.0,East,6.9,-,N/A,,Clear,100,2013-03-08 23:55:00
6:15 PM,30.2,26.6,86,30.35,7.0,East,8.1,-,N/A,,Clear,100,2013-03-09 00:15:00
7:15 PM,30.2,24.8,80,30.33,10.0,East,11.5,-,N/A,,Clear,100,2013-03-09 01:15:00
7:35 PM,30.2,26.6,86,30.33,10.0,East,11.5,-,N/A,,Clear,100,2013-03-09 01:35:00
7:55 PM,30.2,24.8,80,30.33,10.0,East,12.7,-,N/A,,Clear,100,2013-03-09 01:55:00
8:15 PM,30.2,24.8,80,30.32,8.0,East,11.5,-,N/A,,Clear,90,2013-03-09 02:15:00
8:35 PM,30.2,24.8,80,30.31,10.0,East,12.7,-,N/A,,Clear,90,2013-03-09 02:35:00
8:55 PM,30.2,24.8,80,30.31,10.0,East,10.4,-,N/A,,Clear,100,2013-03-09 02:55:00
9:15 PM,30.2,24.8,80,30.30,10.0,East,10.4,-,N/A,,Clear,100,2013-03-09 03:15:00
9:35 PM,33.8,26.6,75,30.30,10.0,ESE,10.4,-,N/A,,Clear,110,2013-03-09 03:35:00
9:55 PM,32.0,24.8,75,30.28,10.0,ESE,15.0,-,N/A,,Clear,110,2013-03-09 03:55:00
10:15 PM,32.0,24.8,75,30.28,10.0,ESE,12.7,-,N/A,,Clear,110,2013-03-09 04:15:00
10:35 PM,32.0,26.6,80,30.28,10.0,ESE,12.7,-,N/A,,Clear,110,2013-03-09 04:35:00
10:55 PM,32.0,26.6,80,30.27,10.0,East,12.7,-,N/A,,Clear,100,2013-03-09 04:55:00
11:15 PM,32.0,26.6,80,30.27,10.0,ESE,8.1,-,N/A,,Clear,110,2013-03-09 05:15:00
11:35 PM,33.8,26.6,75,30.26,10.0,ESE,12.7,-,N/A,,Scattered Clouds,120,2013-03-09 05:35:00
11:55 PM,33.8,26.6,75,30.26,10.0,ESE,9.2,-,N/A,,Mostly Cloudy,110,2013-03-09 05:55:00